sensor_id;sensor_type;location;lat;lon;timestamp;P1;durP1;ratioP1;P2;durP2;ratioP2
27265;SDS011;14766;51.380;13.762;2023-05-02T00:02:06;8.07;;;5.50;;
27265;SDS011;14766;51.380;13.762;2023-05-02T00:04:33;5.15;;;4.35;;
27265;SDS011;14766;51.380;13.762;2023-05-02T00:07:00;8.73;;;5.35;;
27265;SDS011;14766;51.380;13.762;2023-05-02T00:09:28;5.68;;;4.68;;
27265;SDS011;14766;51.380;13.762;2023-05-02T00:11:55;7.65;;;5.25;;
27265;SDS011;14766;51.380;13.762;2023-05-02T00:14:23;7.18;;;5.00;;
27265;SDS011;14766;51.380;13.762;2023-05-02T00:16:50;8.15;;;5.13;;
27265;SDS011;14766;51.380;13.762;2023-05-02T00:19:17;5.90;;;5.25;;
27265;SDS011;14766;51.380;13.762;2023-05-02T00:21:46;6.97;;;5.03;;
27265;SDS011;14766;51.380;13.762;2023-05-02T00:24:14;6.80;;;5.05;;
27265;SDS011;14766;51.380;13.762;2023-05-02T00:26:43;7.90;;;5.15;;
27265;SDS011;14766;51.380;13.762;2023-05-02T00:29:10;7.32;;;5.15;;
27265;SDS011;14766;51.380;13.762;2023-05-02T00:31:39;6.97;;;5.05;;
27265;SDS011;14766;51.380;13.762;2023-05-02T00:34:06;6.10;;;5.18;;
27265;SDS011;14766;51.380;13.762;2023-05-02T00:36:34;6.22;;;4.97;;
27265;SDS011;14766;51.380;13.762;2023-05-02T00:39:03;6.13;;;4.78;;
27265;SDS011;14766;51.380;13.762;2023-05-02T00:41:30;7.72;;;4.97;;
27265;SDS011;14766;51.380;13.762;2023-05-02T00:43:58;7.47;;;5.03;;
27265;SDS011;14766;51.380;13.762;2023-05-02T00:46:25;6.72;;;5.03;;
27265;SDS011;14766;51.380;13.762;2023-05-02T00:48:52;6.07;;;4.60;;
27265;SDS011;14766;51.380;13.762;2023-05-02T00:51:19;6.50;;;5.15;;
27265;SDS011;14766;51.380;13.762;2023-05-02T00:53:46;7.13;;;4.78;;
27265;SDS011;14766;51.380;13.762;2023-05-02T00:56:13;6.30;;;5.05;;
27265;SDS011;14766;51.380;13.762;2023-05-02T00:58:40;7.03;;;5.38;;
27265;SDS011;14766;51.380;13.762;2023-05-02T01:04:03;7.30;;;4.75;;
27265;SDS011;14766;51.380;13.762;2023-05-02T01:10:18;5.82;;;4.97;;
27265;SDS011;14766;51.380;13.762;2023-05-02T01:15:21;6.95;;;4.95;;
27265;SDS011;14766;51.380;13.762;2023-05-02T01:17:49;6.53;;;4.80;;
27265;SDS011;14766;51.380;13.762;2023-05-02T01:20:20;6.82;;;5.47;;
27265;SDS011;14766;51.380;13.762;2023-05-02T01:22:53;5.00;;;4.50;;
27265;SDS011;14766;51.380;13.762;2023-05-02T01:30:52;8.47;;;5.50;;
27265;SDS011;14766;51.380;13.762;2023-05-02T01:33:21;8.73;;;5.53;;
27265;SDS011;14766;51.380;13.762;2023-05-02T01:35:51;7.80;;;5.63;;
27265;SDS011;14766;51.380;13.762;2023-05-02T01:38:19;6.57;;;5.03;;
27265;SDS011;14766;51.380;13.762;2023-05-02T01:40:48;7.97;;;5.47;;
27265;SDS011;14766;51.380;13.762;2023-05-02T01:43:17;5.78;;;4.75;;
27265;SDS011;14766;51.380;13.762;2023-05-02T01:45:47;7.03;;;5.65;;
27265;SDS011;14766;51.380;13.762;2023-05-02T01:48:16;8.20;;;5.20;;
27265;SDS011;14766;51.380;13.762;2023-05-02T01:50:45;7.00;;;5.22;;
27265;SDS011;14766;51.380;13.762;2023-05-02T01:53:15;7.57;;;6.03;;
27265;SDS011;14766;51.380;13.762;2023-05-02T01:55:43;7.60;;;6.30;;
27265;SDS011;14766;51.380;13.762;2023-05-02T01:58:11;6.47;;;5.80;;
27265;SDS011;14766;51.380;13.762;2023-05-02T02:00:40;7.90;;;5.97;;
27265;SDS011;14766;51.380;13.762;2023-05-02T02:03:11;7.38;;;5.90;;
27265;SDS011;14766;51.380;13.762;2023-05-02T02:05:39;7.80;;;6.03;;
27265;SDS011;14766;51.380;13.762;2023-05-02T02:08:07;7.78;;;6.00;;
27265;SDS011;14766;51.380;13.762;2023-05-02T02:10:35;7.70;;;6.22;;
27265;SDS011;14766;51.380;13.762;2023-05-02T02:13:30;9.07;;;6.20;;
27265;SDS011;14766;51.380;13.762;2023-05-02T02:16:02;7.68;;;6.72;;
27265;SDS011;14766;51.380;13.762;2023-05-02T02:18:31;9.55;;;5.80;;
27265;SDS011;14766;51.380;13.762;2023-05-02T02:21:05;6.82;;;6.00;;
27265;SDS011;14766;51.380;13.762;2023-05-02T02:23:34;8.63;;;6.25;;
27265;SDS011;14766;51.380;13.762;2023-05-02T02:26:03;9.45;;;6.55;;
27265;SDS011;14766;51.380;13.762;2023-05-02T02:28:33;6.82;;;6.13;;
27265;SDS011;14766;51.380;13.762;2023-05-02T02:31:00;9.85;;;7.03;;
27265;SDS011;14766;51.380;13.762;2023-05-02T02:33:29;8.90;;;6.30;;
27265;SDS011;14766;51.380;13.762;2023-05-02T02:35:58;7.03;;;6.28;;
27265;SDS011;14766;51.380;13.762;2023-05-02T02:38:45;8.68;;;6.53;;
27265;SDS011;14766;51.380;13.762;2023-05-02T02:41:26;6.90;;;6.20;;
27265;SDS011;14766;51.380;13.762;2023-05-02T03:01:03;7.43;;;6.15;;
27265;SDS011;14766;51.380;13.762;2023-05-02T03:03:32;8.07;;;6.10;;
27265;SDS011;14766;51.380;13.762;2023-05-02T03:06:01;8.88;;;6.68;;
27265;SDS011;14766;51.380;13.762;2023-05-02T03:08:37;7.85;;;6.43;;
27265;SDS011;14766;51.380;13.762;2023-05-02T03:11:07;8.52;;;7.15;;
27265;SDS011;14766;51.380;13.762;2023-05-02T03:13:36;9.60;;;7.30;;
27265;SDS011;14766;51.380;13.762;2023-05-02T03:19:00;9.60;;;7.03;;
27265;SDS011;14766;51.380;13.762;2023-05-02T03:21:28;8.38;;;6.05;;
27265;SDS011;14766;51.380;13.762;2023-05-02T03:24:03;8.40;;;5.60;;
27265;SDS011;14766;51.380;13.762;2023-05-02T03:26:32;7.57;;;6.18;;
27265;SDS011;14766;51.380;13.762;2023-05-02T03:29:00;9.40;;;6.82;;
27265;SDS011;14766;51.380;13.762;2023-05-02T03:31:33;8.45;;;7.07;;
27265;SDS011;14766;51.380;13.762;2023-05-02T03:34:00;10.40;;;7.10;;
27265;SDS011;14766;51.380;13.762;2023-05-02T03:36:29;8.30;;;6.68;;
27265;SDS011;14766;51.380;13.762;2023-05-02T03:38:56;8.57;;;7.68;;
27265;SDS011;14766;51.380;13.762;2023-05-02T03:41:25;8.23;;;6.65;;
27265;SDS011;14766;51.380;13.762;2023-05-02T03:44:00;8.25;;;6.72;;
27265;SDS011;14766;51.380;13.762;2023-05-02T03:46:28;11.77;;;7.75;;
27265;SDS011;14766;51.380;13.762;2023-05-02T03:48:56;9.73;;;6.68;;
27265;SDS011;14766;51.380;13.762;2023-05-02T03:51:24;9.55;;;6.50;;
27265;SDS011;14766;51.380;13.762;2023-05-02T03:53:54;10.10;;;6.82;;
27265;SDS011;14766;51.380;13.762;2023-05-02T03:56:22;8.27;;;6.68;;
27265;SDS011;14766;51.380;13.762;2023-05-02T03:59:00;6.95;;;5.90;;
27265;SDS011;14766;51.380;13.762;2023-05-02T04:01:30;11.30;;;7.07;;
27265;SDS011;14766;51.380;13.762;2023-05-02T04:03:59;10.02;;;7.00;;
27265;SDS011;14766;51.380;13.762;2023-05-02T04:06:30;8.10;;;5.90;;
27265;SDS011;14766;51.380;13.762;2023-05-02T04:09:02;8.35;;;6.72;;
27265;SDS011;14766;51.380;13.762;2023-05-02T04:11:37;8.82;;;6.38;;
27265;SDS011;14766;51.380;13.762;2023-05-02T04:14:06;8.48;;;6.20;;
27265;SDS011;14766;51.380;13.762;2023-05-02T04:16:35;9.98;;;6.75;;
27265;SDS011;14766;51.380;13.762;2023-05-02T04:19:03;7.72;;;6.38;;
27265;SDS011;14766;51.380;13.762;2023-05-02T04:21:31;7.28;;;6.07;;
27265;SDS011;14766;51.380;13.762;2023-05-02T04:23:58;9.52;;;7.03;;
27265;SDS011;14766;51.380;13.762;2023-05-02T04:26:28;7.72;;;6.00;;
27265;SDS011;14766;51.380;13.762;2023-05-02T04:29:02;8.02;;;6.32;;
27265;SDS011;14766;51.380;13.762;2023-05-02T04:31:30;6.85;;;5.90;;
27265;SDS011;14766;51.380;13.762;2023-05-02T04:33:58;8.38;;;6.43;;
27265;SDS011;14766;51.380;13.762;2023-05-02T04:36:32;9.00;;;6.13;;
27265;SDS011;14766;51.380;13.762;2023-05-02T04:39:01;7.10;;;5.80;;
27265;SDS011;14766;51.380;13.762;2023-05-02T04:41:31;7.85;;;5.90;;
27265;SDS011;14766;51.380;13.762;2023-05-02T04:44:08;7.35;;;6.03;;
27265;SDS011;14766;51.380;13.762;2023-05-02T04:46:52;10.15;;;6.15;;
27265;SDS011;14766;51.380;13.762;2023-05-02T04:49:21;7.97;;;5.82;;
27265;SDS011;14766;51.380;13.762;2023-05-02T04:51:48;7.00;;;6.03;;
27265;SDS011;14766;51.380;13.762;2023-05-02T04:54:15;7.45;;;6.05;;
27265;SDS011;14766;51.380;13.762;2023-05-02T04:56:43;7.80;;;5.53;;
27265;SDS011;14766;51.380;13.762;2023-05-02T04:59:11;7.13;;;5.20;;
27265;SDS011;14766;51.380;13.762;2023-05-02T05:01:38;8.10;;;5.60;;
27265;SDS011;14766;51.380;13.762;2023-05-02T05:04:07;6.47;;;5.45;;
27265;SDS011;14766;51.380;13.762;2023-05-02T05:06:34;7.40;;;5.38;;
27265;SDS011;14766;51.380;13.762;2023-05-02T05:09:04;9.50;;;5.65;;
27265;SDS011;14766;51.380;13.762;2023-05-02T05:11:39;6.53;;;5.22;;
27265;SDS011;14766;51.380;13.762;2023-05-02T05:14:08;5.97;;;5.38;;
27265;SDS011;14766;51.380;13.762;2023-05-02T05:16:37;7.90;;;5.43;;
27265;SDS011;14766;51.380;13.762;2023-05-02T05:19:04;6.68;;;5.25;;
27265;SDS011;14766;51.380;13.762;2023-05-02T05:21:31;6.80;;;5.03;;
27265;SDS011;14766;51.380;13.762;2023-05-02T05:24:00;6.85;;;5.57;;
27265;SDS011;14766;51.380;13.762;2023-05-02T05:26:29;6.28;;;4.90;;
27265;SDS011;14766;51.380;13.762;2023-05-02T05:28:57;7.55;;;5.10;;
27265;SDS011;14766;51.380;13.762;2023-05-02T05:31:29;7.13;;;5.15;;
27265;SDS011;14766;51.380;13.762;2023-05-02T05:33:58;7.32;;;5.00;;
27265;SDS011;14766;51.380;13.762;2023-05-02T05:36:27;6.65;;;4.80;;
27265;SDS011;14766;51.380;13.762;2023-05-02T05:38:54;7.38;;;4.93;;
27265;SDS011;14766;51.380;13.762;2023-05-02T05:41:22;6.68;;;5.00;;
27265;SDS011;14766;51.380;13.762;2023-05-02T05:43:56;7.85;;;5.72;;
27265;SDS011;14766;51.380;13.762;2023-05-02T05:46:25;10.10;;;6.03;;
27265;SDS011;14766;51.380;13.762;2023-05-02T05:48:53;7.13;;;5.50;;
27265;SDS011;14766;51.380;13.762;2023-05-02T05:51:20;7.15;;;5.20;;
27265;SDS011;14766;51.380;13.762;2023-05-02T05:53:48;5.53;;;4.65;;
27265;SDS011;14766;51.380;13.762;2023-05-02T05:56:15;6.63;;;5.10;;
27265;SDS011;14766;51.380;13.762;2023-05-02T05:58:52;8.23;;;5.40;;
27265;SDS011;14766;51.380;13.762;2023-05-02T06:01:20;5.13;;;4.50;;
27265;SDS011;14766;51.380;13.762;2023-05-02T06:03:47;6.97;;;4.65;;
27265;SDS011;14766;51.380;13.762;2023-05-02T06:06:16;6.43;;;4.38;;
27265;SDS011;14766;51.380;13.762;2023-05-02T06:08:43;4.97;;;4.15;;
27265;SDS011;14766;51.380;13.762;2023-05-02T06:11:10;4.95;;;4.10;;
27265;SDS011;14766;51.380;13.762;2023-05-02T06:13:37;5.28;;;4.22;;
27265;SDS011;14766;51.380;13.762;2023-05-02T06:16:06;5.97;;;4.00;;
27265;SDS011;14766;51.380;13.762;2023-05-02T06:18:33;4.38;;;3.67;;
27265;SDS011;14766;51.380;13.762;2023-05-02T06:21:04;4.72;;;3.88;;
27265;SDS011;14766;51.380;13.762;2023-05-02T06:23:31;5.63;;;3.72;;
27265;SDS011;14766;51.380;13.762;2023-05-02T06:25:59;6.63;;;3.80;;
27265;SDS011;14766;51.380;13.762;2023-05-02T06:28:27;5.28;;;3.67;;
27265;SDS011;14766;51.380;13.762;2023-05-02T06:33:27;6.35;;;3.60;;
27265;SDS011;14766;51.380;13.762;2023-05-02T06:35:54;4.13;;;3.30;;
27265;SDS011;14766;51.380;13.762;2023-05-02T06:38:24;5.20;;;3.55;;
27265;SDS011;14766;51.380;13.762;2023-05-02T06:40:51;4.05;;;3.22;;
27265;SDS011;14766;51.380;13.762;2023-05-02T06:43:18;4.68;;;3.50;;
27265;SDS011;14766;51.380;13.762;2023-05-02T06:45:46;4.47;;;3.47;;
27265;SDS011;14766;51.380;13.762;2023-05-02T06:48:13;6.05;;;3.80;;
27265;SDS011;14766;51.380;13.762;2023-05-02T06:50:41;7.82;;;3.78;;
27265;SDS011;14766;51.380;13.762;2023-05-02T06:53:08;4.60;;;3.55;;
27265;SDS011;14766;51.380;13.762;2023-05-02T06:55:38;6.85;;;3.63;;
27265;SDS011;14766;51.380;13.762;2023-05-02T06:58:06;12.20;;;3.50;;
27265;SDS011;14766;51.380;13.762;2023-05-02T07:00:33;3.97;;;3.47;;
27265;SDS011;14766;51.380;13.762;2023-05-02T07:03:01;5.90;;;3.42;;
27265;SDS011;14766;51.380;13.762;2023-05-02T07:05:28;4.40;;;3.15;;
27265;SDS011;14766;51.380;13.762;2023-05-02T07:07:56;6.97;;;3.40;;
27265;SDS011;14766;51.380;13.762;2023-05-02T07:10:23;5.38;;;3.58;;
27265;SDS011;14766;51.380;13.762;2023-05-02T07:12:51;6.47;;;4.07;;
27265;SDS011;14766;51.380;13.762;2023-05-02T07:15:18;6.15;;;3.90;;
27265;SDS011;14766;51.380;13.762;2023-05-02T07:17:45;4.70;;;3.35;;
27265;SDS011;14766;51.380;13.762;2023-05-02T07:20:13;5.70;;;3.72;;
27265;SDS011;14766;51.380;13.762;2023-05-02T07:22:41;6.40;;;4.05;;
27265;SDS011;14766;51.380;13.762;2023-05-02T07:25:08;5.82;;;3.45;;
27265;SDS011;14766;51.380;13.762;2023-05-02T07:27:36;5.32;;;3.80;;
27265;SDS011;14766;51.380;13.762;2023-05-02T07:30:03;6.10;;;4.10;;
27265;SDS011;14766;51.380;13.762;2023-05-02T07:32:32;7.10;;;4.30;;
27265;SDS011;14766;51.380;13.762;2023-05-02T07:34:59;5.75;;;3.90;;
27265;SDS011;14766;51.380;13.762;2023-05-02T07:37:30;5.32;;;3.95;;
27265;SDS011;14766;51.380;13.762;2023-05-02T07:40:02;4.47;;;3.65;;
27265;SDS011;14766;51.380;13.762;2023-05-02T07:42:30;4.28;;;3.30;;
27265;SDS011;14766;51.380;13.762;2023-05-02T07:44:57;6.07;;;4.00;;
27265;SDS011;14766;51.380;13.762;2023-05-02T07:47:24;5.18;;;3.55;;
27265;SDS011;14766;51.380;13.762;2023-05-02T07:49:52;4.70;;;3.80;;
27265;SDS011;14766;51.380;13.762;2023-05-02T07:52:20;7.03;;;3.78;;
27265;SDS011;14766;51.380;13.762;2023-05-02T07:54:48;6.30;;;4.13;;
27265;SDS011;14766;51.380;13.762;2023-05-02T07:57:16;6.50;;;3.92;;
27265;SDS011;14766;51.380;13.762;2023-05-02T07:59:44;5.53;;;4.30;;
27265;SDS011;14766;51.380;13.762;2023-05-02T08:02:11;7.40;;;3.67;;
27265;SDS011;14766;51.380;13.762;2023-05-02T08:04:40;4.07;;;3.67;;
27265;SDS011;14766;51.380;13.762;2023-05-02T08:07:07;6.75;;;4.10;;
27265;SDS011;14766;51.380;13.762;2023-05-02T08:09:38;5.28;;;4.22;;
27265;SDS011;14766;51.380;13.762;2023-05-02T08:12:05;7.53;;;4.22;;
27265;SDS011;14766;51.380;13.762;2023-05-02T08:14:32;5.50;;;3.75;;
27265;SDS011;14766;51.380;13.762;2023-05-02T08:16:59;4.68;;;3.97;;
27265;SDS011;14766;51.380;13.762;2023-05-02T08:19:26;5.18;;;3.83;;
27265;SDS011;14766;51.380;13.762;2023-05-02T08:21:53;8.13;;;4.20;;
27265;SDS011;14766;51.380;13.762;2023-05-02T08:24:21;5.03;;;4.00;;
27265;SDS011;14766;51.380;13.762;2023-05-02T08:26:50;5.75;;;3.85;;
27265;SDS011;14766;51.380;13.762;2023-05-02T08:29:17;5.53;;;4.18;;
27265;SDS011;14766;51.380;13.762;2023-05-02T08:31:46;5.50;;;3.60;;
27265;SDS011;14766;51.380;13.762;2023-05-02T08:34:13;4.85;;;4.03;;
27265;SDS011;14766;51.380;13.762;2023-05-02T08:36:41;6.60;;;4.40;;
27265;SDS011;14766;51.380;13.762;2023-05-02T08:39:08;4.97;;;4.28;;
27265;SDS011;14766;51.380;13.762;2023-05-02T08:41:36;8.45;;;4.38;;
27265;SDS011;14766;51.380;13.762;2023-05-02T08:44:05;4.75;;;3.83;;
27265;SDS011;14766;51.380;13.762;2023-05-02T08:46:35;6.85;;;4.72;;
27265;SDS011;14766;51.380;13.762;2023-05-02T08:49:09;7.32;;;4.38;;
27265;SDS011;14766;51.380;13.762;2023-05-02T08:51:36;5.80;;;4.60;;
27265;SDS011;14766;51.380;13.762;2023-05-02T08:54:08;5.50;;;4.32;;
27265;SDS011;14766;51.380;13.762;2023-05-02T08:56:36;6.10;;;4.60;;
27265;SDS011;14766;51.380;13.762;2023-05-02T08:59:03;7.00;;;4.97;;
27265;SDS011;14766;51.380;13.762;2023-05-02T09:01:32;7.30;;;4.80;;
27265;SDS011;14766;51.380;13.762;2023-05-02T09:04:01;6.60;;;4.80;;
27265;SDS011;14766;51.380;13.762;2023-05-02T09:06:30;5.45;;;4.22;;
27265;SDS011;14766;51.380;13.762;2023-05-02T09:08:59;6.53;;;4.78;;
27265;SDS011;14766;51.380;13.762;2023-05-02T09:11:27;6.05;;;4.50;;
27265;SDS011;14766;51.380;13.762;2023-05-02T09:13:55;5.55;;;4.32;;
27265;SDS011;14766;51.380;13.762;2023-05-02T09:16:24;7.35;;;5.00;;
27265;SDS011;14766;51.380;13.762;2023-05-02T09:18:53;7.78;;;5.18;;
27265;SDS011;14766;51.380;13.762;2023-05-02T09:21:26;6.78;;;4.80;;
27265;SDS011;14766;51.380;13.762;2023-05-02T09:29:31;5.57;;;3.88;;
27265;SDS011;14766;51.380;13.762;2023-05-02T09:32:04;6.05;;;4.60;;
27265;SDS011;14766;51.380;13.762;2023-05-02T09:34:32;6.57;;;4.55;;
27265;SDS011;14766;51.380;13.762;2023-05-02T09:37:00;7.05;;;5.22;;
27265;SDS011;14766;51.380;13.762;2023-05-02T09:39:29;8.27;;;5.03;;
27265;SDS011;14766;51.380;13.762;2023-05-02T09:41:57;7.10;;;5.28;;
27265;SDS011;14766;51.380;13.762;2023-05-02T09:44:25;6.40;;;5.15;;
27265;SDS011;14766;51.380;13.762;2023-05-02T09:47:02;6.28;;;5.30;;
27265;SDS011;14766;51.380;13.762;2023-05-02T09:52:11;6.43;;;5.00;;
27265;SDS011;14766;51.380;13.762;2023-05-02T09:54:41;8.20;;;6.20;;
27265;SDS011;14766;51.380;13.762;2023-05-02T09:57:08;8.65;;;6.47;;
27265;SDS011;14766;51.380;13.762;2023-05-02T09:59:37;9.43;;;6.43;;
27265;SDS011;14766;51.380;13.762;2023-05-02T10:02:05;9.52;;;6.45;;
27265;SDS011;14766;51.380;13.762;2023-05-02T10:04:35;7.95;;;5.90;;
27265;SDS011;14766;51.380;13.762;2023-05-02T10:07:04;7.97;;;5.97;;
27265;SDS011;14766;51.380;13.762;2023-05-02T10:09:33;9.15;;;6.90;;
27265;SDS011;14766;51.380;13.762;2023-05-02T10:12:02;10.32;;;7.13;;
27265;SDS011;14766;51.380;13.762;2023-05-02T10:14:30;9.43;;;7.15;;
27265;SDS011;14766;51.380;13.762;2023-05-02T10:20:17;10.45;;;7.38;;
27265;SDS011;14766;51.380;13.762;2023-05-02T10:22:32;8.90;;;6.90;;
27265;SDS011;14766;51.380;13.762;2023-05-02T10:24:59;9.75;;;7.30;;
27265;SDS011;14766;51.380;13.762;2023-05-02T10:27:29;9.55;;;7.68;;
27265;SDS011;14766;51.380;13.762;2023-05-02T10:29:58;11.95;;;8.18;;
27265;SDS011;14766;51.380;13.762;2023-05-02T10:32:29;11.52;;;8.32;;
27265;SDS011;14766;51.380;13.762;2023-05-02T10:35:04;8.98;;;7.70;;
27265;SDS011;14766;51.380;13.762;2023-05-02T10:37:32;11.68;;;8.77;;
27265;SDS011;14766;51.380;13.762;2023-05-02T10:40:02;10.15;;;7.28;;
27265;SDS011;14766;51.380;13.762;2023-05-02T10:42:34;10.25;;;7.50;;
27265;SDS011;14766;51.380;13.762;2023-05-02T10:45:12;10.13;;;7.93;;
27265;SDS011;14766;51.380;13.762;2023-05-02T10:48:15;11.25;;;7.88;;
27265;SDS011;14766;51.380;13.762;2023-05-02T10:58:48;10.10;;;8.25;;
27265;SDS011;14766;51.380;13.762;2023-05-02T11:04:06;8.95;;;7.15;;
27265;SDS011;14766;51.380;13.762;2023-05-02T11:06:35;10.07;;;7.50;;
27265;SDS011;14766;51.380;13.762;2023-05-02T11:11:49;8.02;;;6.68;;
27265;SDS011;14766;51.380;13.762;2023-05-02T11:24:49;9.18;;;6.72;;
27265;SDS011;14766;51.380;13.762;2023-05-02T11:27:59;10.20;;;7.15;;
27265;SDS011;14766;51.380;13.762;2023-05-02T11:30:09;11.50;;;7.25;;
27265;SDS011;14766;51.380;13.762;2023-05-02T11:35:15;8.48;;;6.68;;
27265;SDS011;14766;51.380;13.762;2023-05-02T11:37:58;7.88;;;6.38;;
27265;SDS011;14766;51.380;13.762;2023-05-02T11:40:26;8.38;;;6.85;;
27265;SDS011;14766;51.380;13.762;2023-05-02T11:42:55;9.52;;;7.40;;
27265;SDS011;14766;51.380;13.762;2023-05-02T11:45:33;9.50;;;7.78;;
27265;SDS011;14766;51.380;13.762;2023-05-02T11:48:04;8.48;;;6.82;;
27265;SDS011;14766;51.380;13.762;2023-05-02T11:50:33;9.25;;;7.18;;
27265;SDS011;14766;51.380;13.762;2023-05-02T11:53:15;10.20;;;7.55;;
27265;SDS011;14766;51.380;13.762;2023-05-02T11:58:24;6.20;;;4.68;;
27265;SDS011;14766;51.380;13.762;2023-05-02T12:00:55;7.03;;;6.18;;
27265;SDS011;14766;51.380;13.762;2023-05-02T12:03:29;8.80;;;6.82;;
27265;SDS011;14766;51.380;13.762;2023-05-02T12:06:11;8.45;;;5.88;;
27265;SDS011;14766;51.380;13.762;2023-05-02T12:08:42;8.60;;;6.13;;
27265;SDS011;14766;51.380;13.762;2023-05-02T12:11:14;7.30;;;6.10;;
27265;SDS011;14766;51.380;13.762;2023-05-02T12:13:46;7.75;;;5.45;;
27265;SDS011;14766;51.380;13.762;2023-05-02T12:16:16;8.23;;;6.25;;
27265;SDS011;14766;51.380;13.762;2023-05-02T12:18:44;8.30;;;6.45;;
27265;SDS011;14766;51.380;13.762;2023-05-02T12:21:13;8.85;;;5.85;;
27265;SDS011;14766;51.380;13.762;2023-05-02T12:23:40;7.32;;;6.45;;
27265;SDS011;14766;51.380;13.762;2023-05-02T12:26:21;6.00;;;5.35;;
27265;SDS011;14766;51.380;13.762;2023-05-02T12:28:56;7.75;;;5.88;;
27265;SDS011;14766;51.380;13.762;2023-05-02T12:31:28;7.20;;;6.10;;
27265;SDS011;14766;51.380;13.762;2023-05-02T12:33:57;8.55;;;6.32;;
27265;SDS011;14766;51.380;13.762;2023-05-02T12:36:26;7.90;;;5.97;;
27265;SDS011;14766;51.380;13.762;2023-05-02T12:38:55;8.15;;;6.40;;
27265;SDS011;14766;51.380;13.762;2023-05-02T12:41:29;9.07;;;7.22;;
27265;SDS011;14766;51.380;13.762;2023-05-02T12:43:58;8.13;;;6.93;;
27265;SDS011;14766;51.380;13.762;2023-05-02T12:46:28;8.85;;;7.18;;
27265;SDS011;14766;51.380;13.762;2023-05-02T12:49:01;9.60;;;6.53;;
27265;SDS011;14766;51.380;13.762;2023-05-02T12:51:29;8.55;;;6.80;;
27265;SDS011;14766;51.380;13.762;2023-05-02T12:53:58;8.68;;;6.95;;
27265;SDS011;14766;51.380;13.762;2023-05-02T12:56:28;8.27;;;6.05;;
27265;SDS011;14766;51.380;13.762;2023-05-02T12:58:58;9.23;;;7.18;;
27265;SDS011;14766;51.380;13.762;2023-05-02T13:01:27;8.13;;;5.68;;
27265;SDS011;14766;51.380;13.762;2023-05-02T13:03:54;7.88;;;6.10;;
27265;SDS011;14766;51.380;13.762;2023-05-02T13:06:22;6.80;;;5.78;;
27265;SDS011;14766;51.380;13.762;2023-05-02T13:08:50;7.32;;;6.10;;
27265;SDS011;14766;51.380;13.762;2023-05-02T13:11:17;7.45;;;6.13;;
27265;SDS011;14766;51.380;13.762;2023-05-02T13:13:44;6.68;;;5.75;;
27265;SDS011;14766;51.380;13.762;2023-05-02T13:16:12;6.65;;;5.03;;
27265;SDS011;14766;51.380;13.762;2023-05-02T13:18:39;7.25;;;5.15;;
27265;SDS011;14766;51.380;13.762;2023-05-02T13:21:06;7.60;;;6.10;;
27265;SDS011;14766;51.380;13.762;2023-05-02T13:23:33;8.70;;;6.18;;
27265;SDS011;14766;51.380;13.762;2023-05-02T13:26:00;7.10;;;6.00;;
27265;SDS011;14766;51.380;13.762;2023-05-02T13:28:27;7.88;;;5.82;;
27265;SDS011;14766;51.380;13.762;2023-05-02T13:31:02;7.13;;;5.60;;
27265;SDS011;14766;51.380;13.762;2023-05-02T13:33:29;10.23;;;7.38;;
27265;SDS011;14766;51.380;13.762;2023-05-02T13:35:56;8.25;;;6.15;;
27265;SDS011;14766;51.380;13.762;2023-05-02T13:38:24;9.93;;;7.47;;
27265;SDS011;14766;51.380;13.762;2023-05-02T13:40:53;7.32;;;5.65;;
27265;SDS011;14766;51.380;13.762;2023-05-02T13:43:23;10.65;;;8.20;;
27265;SDS011;14766;51.380;13.762;2023-05-02T13:45:50;8.73;;;6.13;;
27265;SDS011;14766;51.380;13.762;2023-05-02T13:48:18;6.57;;;5.15;;
27265;SDS011;14766;51.380;13.762;2023-05-02T13:50:45;6.78;;;5.25;;
27265;SDS011;14766;51.380;13.762;2023-05-02T13:53:12;8.85;;;6.70;;
27265;SDS011;14766;51.380;13.762;2023-05-02T13:55:39;6.43;;;5.82;;
27265;SDS011;14766;51.380;13.762;2023-05-02T13:58:07;8.63;;;5.82;;
27265;SDS011;14766;51.380;13.762;2023-05-02T14:00:34;6.93;;;4.35;;
27265;SDS011;14766;51.380;13.762;2023-05-02T14:03:01;6.63;;;4.63;;
27265;SDS011;14766;51.380;13.762;2023-05-02T14:05:28;5.40;;;4.60;;
27265;SDS011;14766;51.380;13.762;2023-05-02T14:07:55;7.18;;;5.47;;
27265;SDS011;14766;51.380;13.762;2023-05-02T14:10:26;8.00;;;4.25;;
27265;SDS011;14766;51.380;13.762;2023-05-02T14:12:53;5.47;;;3.90;;
27265;SDS011;14766;51.380;13.762;2023-05-02T14:15:20;5.00;;;3.50;;
27265;SDS011;14766;51.380;13.762;2023-05-02T14:17:48;6.47;;;3.70;;
27265;SDS011;14766;51.380;13.762;2023-05-02T14:20:15;5.53;;;3.95;;
27265;SDS011;14766;51.380;13.762;2023-05-02T14:22:42;5.85;;;4.10;;
27265;SDS011;14766;51.380;13.762;2023-05-02T14:25:09;5.20;;;3.70;;
27265;SDS011;14766;51.380;13.762;2023-05-02T14:27:36;5.18;;;4.25;;
27265;SDS011;14766;51.380;13.762;2023-05-02T14:30:03;6.55;;;4.50;;
27265;SDS011;14766;51.380;13.762;2023-05-02T14:32:31;4.57;;;3.50;;
27265;SDS011;14766;51.380;13.762;2023-05-02T14:34:58;4.38;;;3.90;;
27265;SDS011;14766;51.380;13.762;2023-05-02T14:37:25;6.30;;;3.70;;
27265;SDS011;14766;51.380;13.762;2023-05-02T14:39:52;4.75;;;3.80;;
27265;SDS011;14766;51.380;13.762;2023-05-02T14:42:21;3.75;;;3.25;;
27265;SDS011;14766;51.380;13.762;2023-05-02T14:44:49;4.05;;;3.40;;
27265;SDS011;14766;51.380;13.762;2023-05-02T14:47:18;5.88;;;3.75;;
27265;SDS011;14766;51.380;13.762;2023-05-02T14:49:44;5.05;;;3.70;;
27265;SDS011;14766;51.380;13.762;2023-05-02T14:52:12;3.95;;;3.30;;
27265;SDS011;14766;51.380;13.762;2023-05-02T14:54:39;4.70;;;3.45;;
27265;SDS011;14766;51.380;13.762;2023-05-02T14:57:07;4.57;;;3.60;;
27265;SDS011;14766;51.380;13.762;2023-05-02T14:59:34;4.40;;;2.88;;
27265;SDS011;14766;51.380;13.762;2023-05-02T15:02:02;6.10;;;3.53;;
27265;SDS011;14766;51.380;13.762;2023-05-02T15:04:29;4.68;;;3.13;;
27265;SDS011;14766;51.380;13.762;2023-05-02T15:06:58;6.28;;;3.60;;
27265;SDS011;14766;51.380;13.762;2023-05-02T15:09:27;4.00;;;3.25;;
27265;SDS011;14766;51.380;13.762;2023-05-02T15:11:54;5.18;;;3.58;;
27265;SDS011;14766;51.380;13.762;2023-05-02T15:14:25;4.32;;;3.35;;
27265;SDS011;14766;51.380;13.762;2023-05-02T15:16:53;5.65;;;3.17;;
27265;SDS011;14766;51.380;13.762;2023-05-02T15:19:23;4.90;;;3.28;;
27265;SDS011;14766;51.380;13.762;2023-05-02T15:21:53;4.90;;;2.72;;
27265;SDS011;14766;51.380;13.762;2023-05-02T15:24:22;10.05;;;3.03;;
27265;SDS011;14766;51.380;13.762;2023-05-02T15:26:52;4.40;;;3.28;;
27265;SDS011;14766;51.380;13.762;2023-05-02T15:29:19;5.28;;;3.03;;
27265;SDS011;14766;51.380;13.762;2023-05-02T15:31:46;4.55;;;3.00;;
27265;SDS011;14766;51.380;13.762;2023-05-02T15:34:13;3.47;;;2.53;;
27265;SDS011;14766;51.380;13.762;2023-05-02T15:36:40;3.05;;;2.15;;
27265;SDS011;14766;51.380;13.762;2023-05-02T15:39:08;4.57;;;2.60;;
27265;SDS011;14766;51.380;13.762;2023-05-02T15:41:35;3.92;;;2.78;;
27265;SDS011;14766;51.380;13.762;2023-05-02T15:44:03;8.02;;;5.07;;
27265;SDS011;14766;51.380;13.762;2023-05-02T15:46:32;8.43;;;5.70;;
27265;SDS011;14766;51.380;13.762;2023-05-02T15:48:59;5.22;;;3.88;;
27265;SDS011;14766;51.380;13.762;2023-05-02T15:51:26;4.78;;;2.83;;
27265;SDS011;14766;51.380;13.762;2023-05-02T15:53:53;4.50;;;3.10;;
27265;SDS011;14766;51.380;13.762;2023-05-02T15:56:20;5.20;;;3.38;;
27265;SDS011;14766;51.380;13.762;2023-05-02T15:58:47;5.75;;;3.30;;
27265;SDS011;14766;51.380;13.762;2023-05-02T16:01:14;4.80;;;3.05;;
27265;SDS011;14766;51.380;13.762;2023-05-02T16:03:41;4.45;;;2.63;;